Ana Sayfa
METAR-TAF:

METAR-TAF

Havaalanları :

Caracas, Venezuela

Enlem: 10-36N, Boylam: 066-59W, yükseklik: 43 m

Güncel hava durumu gözlemi

Rapor saat 15:02 UTC de 1 saat ve 7 dakika önce yapıldı.
Rüzgar doğudan 10 kt
Sıcaklık 29°C
Nem 74%
Basınç 1014 hPa

METAR: SVMI 151502Z AUTO 08010KT NCD 29/24 Q1014

Saat: 12:09 (16:09 UTC)

Tahmin

Rapor saat 10:00 UTC de 6 saat ve 9 dakika önce yapıldı.
Ayın 15'si saat 12 UTC'den ayın 16'si saat 12 UTC'ye kadar geçerli Tahmin
Rüzgar kuzeydan kt
Görüş mesafesi 10 km veya daha fazla
1600 ft yükseklikte az bulutlu
Geçici
ayın 10'si saat 12 UTC'den ayın 10'si saat 16 UTC'ye kadar
Rüzgar kuzeydan kt
Görüş mesafesi 10 km veya daha fazla
1600 ft yükseklikte az bulutlu

TAF: SVMI 151000Z 1512/1612 00000KT 9999 FEW016 TX26/18Z TN22/08Z TEMPO 1012/1016 00000KT 9999 FEW016

4.000'den fazla havaalanı için hava durumu gözlemleri ve tahminleri (METAR ve TAF raporları).

Kullanılabilir istasyonlar harita üzerinde sarı ve kırmızı noktalarla gösterilir.

İstasyonun adını görmek için fareyi noktanın üzerinde gezdirin.

Sonrasında hava gözlem ve tahminlerini görmek için tıklayın.

Haritayı değiştirmek için: yaklaştırmak için siyah artı işaretli yeşil düğmeye ve uzaklaştırmak için de eksi işaretli düğmeye hızla tıklayın; bitişik haritalar için yeşil okları kullanın.


METAR-TAF: